Terminal Aerodrome Forecast
Issued by NWS Milwaukee/Sullivan, WI

Home | Current Version | Previous Version | Text Only | Print | Product List | Glossary On
Versions: 1 2 3 4 5 6 7 8 9 10 11 12 13 14 15 16 17 18 19 20 21 22 23 24 25
000
FTUS43 KMKX 282016 AAA
TAFMSN
TAF AMD
KMSN 282016Z 2820/2918 19013G24KT P6SM SCT045
     FM282300 19010KT 5SM SHRA VCTS BKN040CB
      TEMPO 2823/2901 3SM TS OVC025CB
     FM290200 19006KT P6SM BKN050
     FM291500 24008KT P6SM OVC025=

USA.gov is the U.S. government's official web portal to all federal, state and local government web resources and services.